Woomera, Australia
Current Conditions -  °F | °C
As of 6:30 PM on Saturday 29 Nov 2014 (Local Time) from YPWR Reporting Station
Clear Clear  
Wind Chill: 95°   Ceiling: Unl
Heat Index: 95°   Visibility: 6mi
Dew Point: 25°   Wind: 5mph
Humidity: 8%   Direction: 310°NW
Pressure: 29.68"   Gusts: NA
Location:  31.2°S, 136.82°E
Report Text: YPWR 290830Z AUTO 31004KT 9999 // NCD 35/M04 Q1005
Loading
Personal Weather Stations






























Interactive Weather Map New forecast layout! Learn more

10-Day Weather Forecast

Advertisements
Track Severe Weather on mobile